Les articles d'ExpertMaritime.pro


Votre expert maritime indépendant Xavier Braive est disponible sur la zone de Saujon - Port de Ribérou - 17600

(Charente-Maritime - Poitou-Charentes)


Voir plan
Situation :

Le port de Ribérou est un port de pêche et de plaisance situé au fond de l'estuaire de la Seudre, à Saujon. C'est l'un des deux ports de la ville avec celui du Breuil, un peu en aval.

Actif dès le XIe siècle, il prend son aspect actuel à partir de 1842, sous l'impulsion du ministre des travaux publics de l'époque, Jules Dufaure, " enfant du pays", qui tente ainsi de relancer le commerce maritime et les activités halieutiques, alors en déclin.
Idéalement situé, en marge du centre-ville, de la base de loisirs de La Lande et des espaces préservés des marais de la Seudre (chemins de halage transformés en sentiers de promenade), il est devenu un des hauts lieux du tourisme saujonnais, où sont notamment organisés des soirées thématiques et le feu d'artifice du 14 juillet.

En 2011, le port de Ribérou a été l'objet d'un important programme de rénovation urbaine conduit par l'architecte-urbaniste Sophie Blanchet, complétant des efforts déjà mis en œuvre en centre-ville.
Une partie du site est reconvertie en esplanade piétonne, dotée d'un mobilier urbain contemporain : il se veut une sorte de "trait d'union" entre la base de loisirs de La Lande (piscine, tennis, boulodrome, stade, terrain de basket...), les sentiers de promenade et de découverte des marais de la Seudre, qui débutent au port, et le centre-ville.
L'inauguration du nouveau port a lieu le 18 août 2012, en présence du maire, Pascal Ferchaud, et d'une foule nombreuse venue profiter des animations : concerts, jeux nautiques, joutes, etc.

Aujourd'hui, le port de Ribérou est un petit port de pêche et de plaisance. C'est également une base de départ pour certains sports nautiques (canoë-kayak). Sa longueur est d'environ 250 mètres pour 40 mètres.
Depuis Ribérou, il est possible d'atteindre successivement les ports du Breuil (Saujon), de L'Éguille, de Mornac, de Chaillevette, de Chatressac (Chaillevette), des Grandes Roches et d'Orivol (Étaules), de La Grève à Duret et de Coux (Arvert), de La Grève (La Tremblade) et de La Cayenne (Marennes).


En 2011, la municipalité entame un programme de rénovation du site portuaire, confié à l'architecte-urbaniste Sophie Blanchet. Il consiste en une transformation des anciens parkings en esplanade piétonne, véritable espace de rencontre doté d'un mobilier urbain moderne et à terme, d'espaces verts. Depuis les quais, bordés d'immeubles bourgeois, de petites rues pittoresques et fleuries de roses trémières permettent de sillonner le quartier et de rejoindre le centre-ville.

Le pont à écluse de Ribérou, dit « pont des eaux contraires », a été rénové en 2010. Il marque la séparation entre les eaux de l'estuaire (côté port : eaux saumâtres) et les eaux du fleuve (côté bassin de retenue : eaux douces).



Adresse :

Mairie
1, place Denfert Rochereau
17600 SAUJON

Tél/Fax : 05 46 02 80 07 / 05 46 02 91 92

E-mail : contact@mairie-saujon.fr
Météo locale sur la zone Port de Ribérou
Heure (UTC) Dir.Vent Vit.Vent (nds) Force (Bft) T°min T°max P (mb) Hum.Rel.
26/11/2022 - 15:00:00 au 26/11/2022 - 18:00:00 134° (SE) 7 3 10°C 12°C 1026 74 %
26/11/2022 - 18:00:00 au 26/11/2022 - 21:00:00 145° (SE) 8 3 9°C 10°C 1025 78 %
26/11/2022 - 21:00:00 au 27/11/2022 - 00:00:00 155° (SSE) 9 3 9°C 9°C 1024 79 %
27/11/2022 - 00:00:00 au 27/11/2022 - 03:00:00 159° (SSE) 8 3 9°C 9°C 1023 72 %
27/11/2022 - 03:00:00 au 27/11/2022 - 06:00:00 155° (SSE) 9 3 8°C 8°C 1021 68 %
27/11/2022 - 06:00:00 au 27/11/2022 - 09:00:00 157° (SSE) 9 3 9°C 9°C 1021 63 %
27/11/2022 - 09:00:00 au 27/11/2022 - 12:00:00 172° (S) 9 3 13°C 13°C 1019 51 %
27/11/2022 - 12:00:00 au 27/11/2022 - 15:00:00 193° (SSW) 6 2 12°C 12°C 1017 61 %
27/11/2022 - 15:00:00 au 27/11/2022 - 18:00:00 182° (S) 7 3 12°C 12°C 1015 76 %
27/11/2022 - 18:00:00 au 27/11/2022 - 21:00:00 247° (WSW) 11 4 12°C 12°C 1015 89 %
27/11/2022 - 21:00:00 au 28/11/2022 - 00:00:00 286° (WNW) 9 3 11°C 11°C 1016 87 %
28/11/2022 - 00:00:00 au 28/11/2022 - 03:00:00 288° (WNW) 13 4 11°C 11°C 1016 80 %
28/11/2022 - 03:00:00 au 28/11/2022 - 06:00:00 291° (WNW) 14 4 12°C 12°C 1016 74 %
28/11/2022 - 06:00:00 au 28/11/2022 - 09:00:00 292° (WNW) 15 4 12°C 12°C 1017 69 %
28/11/2022 - 09:00:00 au 28/11/2022 - 12:00:00 290° (WNW) 15 4 13°C 13°C 1016 65 %
28/11/2022 - 12:00:00 au 28/11/2022 - 15:00:00 299° (WNW) 13 4 11°C 11°C 1015 83 %
28/11/2022 - 15:00:00 au 28/11/2022 - 18:00:00 317° (NW) 10 3 11°C 11°C 1016 81 %
28/11/2022 - 18:00:00 au 28/11/2022 - 21:00:00 335° (NNW) 9 3 10°C 10°C 1017 83 %
28/11/2022 - 21:00:00 au 29/11/2022 - 00:00:00 347° (NNW) 7 3 9°C 9°C 1018 83 %
29/11/2022 - 00:00:00 au 29/11/2022 - 03:00:00 355° (N) 7 3 8°C 8°C 1018 86 %
29/11/2022 - 03:00:00 au 29/11/2022 - 06:00:00 352° (N) 7 3 8°C 8°C 1019 87 %
29/11/2022 - 06:00:00 au 29/11/2022 - 09:00:00 008° (N) 7 3 8°C 8°C 1021 88 %
29/11/2022 - 09:00:00 au 29/11/2022 - 12:00:00 029° (NNE) 5 2 11°C 11°C 1021 75 %
29/11/2022 - 12:00:00 au 29/11/2022 - 15:00:00 037° (NE) 4 2 11°C 11°C 1022 72 %
29/11/2022 - 15:00:00 au 29/11/2022 - 18:00:00 061° (ENE) 4 2 8°C 8°C 1022 85 %
29/11/2022 - 18:00:00 au 29/11/2022 - 21:00:00 113° (ESE) 6 2 7°C 7°C 1022 91 %
29/11/2022 - 21:00:00 au 30/11/2022 - 00:00:00 113° (ESE) 6 2 6°C 6°C 1022 90 %
30/11/2022 - 00:00:00 au 30/11/2022 - 03:00:00 098° (E) 5 2 5°C 5°C 1021 89 %
30/11/2022 - 03:00:00 au 30/11/2022 - 06:00:00 093° (E) 6 2 5°C 5°C 1020 88 %
30/11/2022 - 06:00:00 au 30/11/2022 - 09:00:00 093° (E) 5 2 7°C 7°C 1020 81 %
30/11/2022 - 09:00:00 au 30/11/2022 - 12:00:00 069° (ENE) 5 2 10°C 10°C 1019 68 %
30/11/2022 - 12:00:00 au 30/11/2022 - 15:00:00 047° (NE) 6 2 10°C 10°C 1017 74 %
30/11/2022 - 15:00:00 au 30/11/2022 - 18:00:00 051° (NE) 7 3 8°C 8°C 1017 88 %
30/11/2022 - 18:00:00 au 30/11/2022 - 21:00:00 061° (ENE) 8 3 7°C 7°C 1018 90 %
30/11/2022 - 21:00:00 au 01/12/2022 - 00:00:00 050° (NE) 7 3 6°C 6°C 1018 87 %
01/12/2022 - 00:00:00 au 01/12/2022 - 03:00:00 030° (NNE) 7 3 6°C 6°C 1018 86 %
01/12/2022 - 03:00:00 au 01/12/2022 - 06:00:00 034° (NE) 8 3 6°C 6°C 1017 85 %
01/12/2022 - 06:00:00 au 01/12/2022 - 09:00:00 031° (NNE) 6 2 8°C 8°C 1018 77 %
01/12/2022 - 09:00:00 au 01/12/2022 - 12:00:00 031° (NNE) 8 3 9°C 9°C 1018 69 %
01/12/2022 - 12:00:00 au 01/12/2022 - 15:00:00 029° (NNE) 7 3 10°C 10°C 1017 67 %
openweathermap
Ces informations sont partiellement extraites de Wikipedia, et des sites pertinents pour cette zone. Compilation d'informations de Xavier Braive.
Xavier Braive, Expert Maritime Plaisance se déplace sur Port de Ribérou, Saujon, 17600, Charente-Maritime

Welcome to Cross-Channel yachtmen !

we can deliver survey reports in english, in case of dammage or prior to buy / sell a boat in France (pre-purchase survey), and more specifically on the Atlantic coast.

Uw onafhankelijk jachtexpert

verkrijkbaar op de Atlantische kust, bij aankoop of reparatie van jachten (metaal, polyester of composiet). Rapporten in Nederlands

BRAIVE, Xavier
Xavier Braive
Expert Maritime
Nouvelle Aquitaine
France
07 64 82 25 44